createdAt,value
2022-09-18T00:02:18.098Z,10.70
2022-09-18T00:04:51.332Z,11.30
2022-09-18T00:07:23.911Z,7.70
2022-09-18T00:09:56.492Z,4.50
2022-09-18T00:12:29.231Z,9.00
2022-09-18T00:15:02.058Z,8.20
2022-09-18T00:17:35.012Z,12.60
2022-09-18T00:20:11.152Z,9.40
2022-09-18T00:22:43.781Z,12.20
2022-09-18T00:25:16.662Z,7.30
2022-09-18T00:27:49.864Z,11.20
2022-09-18T00:30:23.049Z,8.10
2022-09-18T00:32:55.727Z,6.80
2022-09-18T00:35:28.525Z,5.40
2022-09-18T00:38:01.689Z,6.50
2022-09-18T00:40:34.564Z,5.10
2022-09-18T00:46:09.950Z,8.00
2022-09-18T00:48:54.774Z,10.30
2022-09-18T00:51:28.643Z,11.80
2022-09-18T00:54:07.852Z,4.60
2022-09-18T00:56:40.843Z,7.30
2022-09-18T00:59:17.002Z,7.70
2022-09-18T01:01:50.058Z,9.10
2022-09-18T01:04:22.772Z,13.80
2022-09-18T01:07:04.570Z,4.50
2022-09-18T01:09:44.648Z,8.60
2022-09-18T01:12:29.642Z,4.40
2022-09-18T01:15:14.249Z,5.70
2022-09-18T01:17:57.974Z,5.70
2022-09-18T01:20:55.665Z,4.40
2022-09-18T01:24:29.473Z,6.00
2022-09-18T01:27:07.421Z,8.30
2022-09-18T01:29:53.465Z,4.50
2022-09-18T01:32:31.982Z,5.40
2022-09-18T01:35:36.848Z,5.60
2022-09-18T01:38:11.902Z,8.10
2022-09-18T01:40:50.151Z,6.70
2022-09-18T01:43:24.866Z,3.40
2022-09-18T01:46:01.352Z,5.40
2022-09-18T01:48:40.806Z,4.20
2022-09-18T01:51:18.797Z,3.90
2022-09-18T01:53:56.086Z,3.40
2022-09-18T01:56:35.349Z,10.40
2022-09-18T01:59:12.715Z,6.70
2022-09-18T02:01:58.092Z,3.10
2022-09-18T02:04:37.530Z,2.70
2022-09-18T02:07:16.250Z,5.00
2022-09-18T02:09:49.335Z,2.70
2022-09-18T02:12:26.200Z,5.90
2022-09-18T02:15:06.879Z,4.50
2022-09-18T02:17:50.465Z,3.00
2022-09-18T02:20:27.501Z,3.30
2022-09-18T02:23:04.887Z,2.50
2022-09-18T02:25:44.818Z,2.30
2022-09-18T02:28:22.031Z,4.40
2022-09-18T02:30:55.605Z,2.10
2022-09-18T02:33:34.684Z,2.90
2022-09-18T02:36:52.718Z,2.30
2022-09-18T02:39:42.684Z,1.60
2022-09-18T02:42:30.109Z,0.70
2022-09-18T02:45:16.099Z,1.10
2022-09-18T02:48:03.651Z,1.80
2022-09-18T02:50:47.059Z,1.90
2022-09-18T02:53:28.449Z,3.80
2022-09-18T02:56:05.994Z,1.90
2022-09-18T02:58:47.321Z,2.20
2022-09-18T03:01:22.077Z,5.20
2022-09-18T03:03:55.037Z,0.70
2022-09-18T03:06:38.893Z,0.90
2022-09-18T03:09:12.477Z,0.80
2022-09-18T03:11:45.687Z,2.60
2022-09-18T03:14:18.568Z,1.00
2022-09-18T03:16:51.545Z,0.70
2022-09-18T03:19:24.323Z,2.20
2022-09-18T03:21:57.313Z,0.70
2022-09-18T03:24:31.427Z,1.10
2022-09-18T03:27:05.188Z,1.20
2022-09-18T03:29:37.992Z,1.40
2022-09-18T03:32:10.753Z,3.00
2022-09-18T03:34:51.257Z,0.70
2022-09-18T03:37:24.555Z,2.90
2022-09-18T03:39:58.321Z,0.70
2022-09-18T03:42:31.552Z,1.10
2022-09-18T03:45:07.913Z,3.00
2022-09-18T03:47:41.343Z,1.10
2022-09-18T03:50:15.735Z,0.90
2022-09-18T03:52:51.674Z,1.00
2022-09-18T03:55:41.063Z,4.90
2022-09-18T03:58:32.217Z,4.60
2022-09-18T04:01:43.825Z,2.00
2022-09-18T04:04:36.931Z,1.50
2022-09-18T04:07:09.993Z,1.10
2022-09-18T04:09:45.672Z,5.00
2022-09-18T04:12:18.653Z,4.50
2022-09-18T04:14:53.043Z,1.20
2022-09-18T04:17:25.963Z,0.80
2022-09-18T04:19:58.538Z,2.20
2022-09-18T04:22:31.893Z,4.00
2022-09-18T04:25:05.160Z,3.20
2022-09-18T04:27:37.825Z,0.90
2022-09-18T04:30:14.405Z,1.10
2022-09-18T04:32:47.794Z,0.90
2022-09-18T04:35:20.610Z,1.70
2022-09-18T04:37:53.239Z,1.00
2022-09-18T04:40:26.270Z,1.10
2022-09-18T04:42:59.107Z,1.20
2022-09-18T04:45:32.813Z,1.70
2022-09-18T04:48:06.485Z,1.60
2022-09-18T04:50:39.195Z,0.90
2022-09-18T04:53:17.767Z,3.30
2022-09-18T04:55:51.795Z,1.10
2022-09-18T04:58:26.346Z,2.10
2022-09-18T05:01:04.021Z,1.50
2022-09-18T05:03:37.135Z,1.00
2022-09-18T05:06:10.589Z,2.20
2022-09-18T05:08:44.331Z,3.00
2022-09-18T05:11:17.015Z,2.40
2022-09-18T05:13:56.918Z,2.90
2022-09-18T05:16:31.583Z,4.50
2022-09-18T05:19:23.331Z,3.60
2022-09-18T05:22:00.399Z,4.30
2022-09-18T05:24:33.087Z,4.10
2022-09-18T05:27:06.401Z,1.20
2022-09-18T05:29:39.279Z,3.10
2022-09-18T05:32:18.461Z,1.90
2022-09-18T05:34:51.891Z,2.10
2022-09-18T05:37:24.895Z,1.30
2022-09-18T05:39:59.240Z,1.70
2022-09-18T05:42:32.078Z,5.80
2022-09-18T05:45:05.611Z,3.40
2022-09-18T05:47:38.381Z,3.10
2022-09-18T05:50:12.955Z,1.60
2022-09-18T05:52:45.712Z,1.20
2022-09-18T05:55:18.854Z,1.40
2022-09-18T05:57:55.056Z,1.50
2022-09-18T06:00:29.538Z,1.40
2022-09-18T06:03:08.153Z,1.50
2022-09-18T06:05:42.886Z,4.30
2022-09-18T06:08:17.817Z,1.80
2022-09-18T06:10:50.583Z,1.50
2022-09-18T06:13:23.177Z,1.50
2022-09-18T06:15:58.620Z,2.70
2022-09-18T06:18:52.010Z,2.10
2022-09-18T06:21:26.206Z,3.00
2022-09-18T06:23:59.189Z,2.60
2022-09-18T06:26:41.824Z,1.80
2022-09-18T06:29:14.821Z,1.90
2022-09-18T06:31:56.612Z,1.40
2022-09-18T06:34:36.651Z,3.90
2022-09-18T06:37:14.286Z,1.90
2022-09-18T06:39:47.190Z,4.10
2022-09-18T06:42:30.246Z,2.50
2022-09-18T06:45:11.313Z,1.60
2022-09-18T06:47:44.617Z,6.80
2022-09-18T06:50:19.239Z,2.10
2022-09-18T06:52:52.123Z,2.30
2022-09-18T06:55:27.346Z,2.40
2022-09-18T06:58:01.442Z,3.00
2022-09-18T07:00:34.837Z,2.40
2022-09-18T07:03:10.249Z,2.10
2022-09-18T07:06:03.475Z,1.70
2022-09-18T07:08:47.432Z,3.30
2022-09-18T07:11:25.254Z,2.90
2022-09-18T07:13:58.002Z,3.90
2022-09-18T07:16:32.299Z,2.20
2022-09-18T07:19:06.719Z,2.50
2022-09-18T07:21:40.684Z,2.10
2022-09-18T07:24:14.867Z,2.10
2022-09-18T07:26:47.856Z,4.00
2022-09-18T07:29:20.635Z,3.10
2022-09-18T07:31:53.626Z,4.10
2022-09-18T07:34:26.303Z,3.60
2022-09-18T07:36:59.701Z,5.10
2022-09-18T07:39:32.853Z,5.30
2022-09-18T07:42:41.409Z,4.30
2022-09-18T07:45:14.856Z,2.90
2022-09-18T07:47:47.902Z,4.20
2022-09-18T07:50:20.679Z,3.10
2022-09-18T07:52:58.002Z,4.50
2022-09-18T07:55:36.549Z,4.20
2022-09-18T07:58:10.817Z,2.90
2022-09-18T08:00:55.547Z,7.20
2022-09-18T08:03:30.299Z,4.50
2022-09-18T08:06:32.961Z,6.10
2022-09-18T08:09:17.437Z,2.00
2022-09-18T08:12:16.237Z,1.60
2022-09-18T08:15:18.454Z,2.30
2022-09-18T08:18:11.763Z,2.20
2022-09-18T08:21:03.260Z,1.60
2022-09-18T08:23:48.153Z,2.30
2022-09-18T08:26:22.593Z,1.80
2022-09-18T08:28:58.527Z,1.50
2022-09-18T08:31:31.831Z,1.40
2022-09-18T08:34:05.529Z,2.20
2022-09-18T08:36:38.716Z,1.60
2022-09-18T08:39:28.190Z,2.90
2022-09-18T08:42:33.839Z,4.30
2022-09-18T08:45:24.387Z,4.20
2022-09-18T08:48:02.039Z,2.50
2022-09-18T08:50:42.539Z,3.20
2022-09-18T08:53:23.675Z,1.30
2022-09-18T08:56:23.088Z,3.60
2022-09-18T08:59:28.537Z,2.40
2022-09-18T09:02:24.306Z,1.50
2022-09-18T09:05:05.087Z,1.00
2022-09-18T09:08:04.779Z,0.60
2022-09-18T09:10:50.127Z,1.70
2022-09-18T09:13:53.913Z,5.20
2022-09-18T09:16:41.585Z,1.10
2022-09-18T09:19:31.570Z,0.90
2022-09-18T09:22:18.043Z,1.10
2022-09-18T09:25:05.278Z,0.80
2022-09-18T09:27:45.217Z,2.00
2022-09-18T09:30:35.277Z,1.00
2022-09-18T09:33:44.042Z,1.60
2022-09-18T09:36:31.244Z,1.10
2022-09-18T09:39:10.201Z,1.30
2022-09-18T09:41:50.251Z,5.60
2022-09-18T09:44:47.273Z,2.50
2022-09-18T09:47:30.521Z,3.70
2022-09-18T09:50:21.517Z,0.80
2022-09-18T09:53:07.503Z,1.60
2022-09-18T09:55:51.201Z,2.00
2022-09-18T09:58:39.593Z,3.00
2022-09-18T10:01:20.733Z,2.40
2022-09-18T10:04:06.661Z,2.20
2022-09-18T10:06:54.704Z,3.40
2022-09-18T10:09:39.266Z,4.50
2022-09-18T10:12:22.998Z,4.00
2022-09-18T10:15:01.944Z,3.40
2022-09-18T10:17:40.142Z,6.70
2022-09-18T10:20:18.757Z,3.30
2022-09-18T10:22:53.284Z,4.60
2022-09-18T10:25:36.920Z,1.40
2022-09-18T10:28:14.969Z,2.00
2022-09-18T10:31:03.669Z,5.00
2022-09-18T10:36:30.558Z,3.40
2022-09-18T10:39:20.123Z,4.50
2022-09-18T10:42:00.273Z,2.20
2022-09-18T10:44:36.364Z,7.50
2022-09-18T10:47:24.992Z,6.60
2022-09-18T10:50:03.158Z,5.90
2022-09-18T10:52:40.658Z,7.10
2022-09-18T10:55:55.736Z,9.70
2022-09-18T10:58:33.814Z,6.00
2022-09-18T11:01:10.404Z,4.60
2022-09-18T11:03:49.932Z,9.20
2022-09-18T11:06:33.469Z,7.10
2022-09-18T11:09:19.301Z,6.60
2022-09-18T11:11:53.070Z,7.00
2022-09-18T11:14:32.383Z,13.90
2022-09-18T11:17:28.221Z,9.50
2022-09-18T11:20:04.042Z,6.10
2022-09-18T11:22:49.400Z,6.60
2022-09-18T11:25:33.648Z,9.70
2022-09-18T11:28:28.477Z,11.20
2022-09-18T11:31:08.195Z,4.10
2022-09-18T11:33:49.023Z,9.00
2022-09-18T11:36:32.346Z,10.30
2022-09-18T11:39:18.677Z,10.40
2022-09-18T11:41:55.913Z,11.90
2022-09-18T11:44:33.485Z,8.30
2022-09-18T11:47:37.998Z,8.50
2022-09-18T11:50:19.591Z,11.90
2022-09-18T11:52:59.450Z,10.50
2022-09-18T11:55:39.491Z,8.90
2022-09-18T11:58:22.922Z,7.80
2022-09-18T12:01:05.463Z,8.90
2022-09-18T12:03:43.838Z,8.60
2022-09-18T12:06:25.042Z,7.50
2022-09-18T12:09:03.921Z,7.60
2022-09-18T12:11:44.739Z,8.20
2022-09-18T12:14:23.214Z,7.10
2022-09-18T12:17:25.270Z,12.10
2022-09-18T12:20:02.894Z,12.60
2022-09-18T12:22:45.676Z,16.40
2022-09-18T12:25:20.985Z,11.70
2022-09-18T12:28:28.520Z,9.70
2022-09-18T12:31:12.111Z,10.10
2022-09-18T12:33:56.383Z,11.50
2022-09-18T12:36:51.051Z,8.10
2022-09-18T12:40:00.326Z,12.40
2022-09-18T12:42:43.602Z,6.70
2022-09-18T12:45:53.042Z,10.70
2022-09-18T12:48:51.632Z,5.20
2022-09-18T12:51:40.387Z,6.20
2022-09-18T12:54:41.464Z,7.80
2022-09-18T12:57:32.538Z,6.90
2022-09-18T13:00:11.795Z,8.60
2022-09-18T13:02:56.058Z,8.40
2022-09-18T13:05:34.839Z,8.40
2022-09-18T13:08:18.389Z,5.80
2022-09-18T13:10:55.962Z,8.70
2022-09-18T13:13:39.601Z,8.30
2022-09-18T13:16:19.275Z,7.80
2022-09-18T13:18:57.675Z,3.90
2022-09-18T13:21:37.722Z,5.90
2022-09-18T13:24:16.238Z,10.00
2022-09-18T13:26:50.957Z,5.60
2022-09-18T13:30:15.078Z,5.50
2022-09-18T13:32:48.235Z,7.20
2022-09-18T13:35:29.121Z,5.10
2022-09-18T13:38:18.950Z,7.00
2022-09-18T13:41:01.630Z,8.50
2022-09-18T13:43:47.219Z,4.00
2022-09-18T13:46:42.352Z,4.70
2022-09-18T13:49:35.231Z,3.90
2022-09-18T13:52:45.428Z,6.40
2022-09-18T13:55:38.300Z,3.70
2022-09-18T13:58:54.806Z,6.00
2022-09-18T14:02:01.377Z,8.30
2022-09-18T14:05:03.539Z,5.10
2022-09-18T14:08:35.567Z,5.10
2022-09-18T14:11:15.463Z,3.70
2022-09-18T14:13:54.624Z,6.40
2022-09-18T14:16:43.908Z,6.30
2022-09-18T14:19:37.283Z,3.70
2022-09-18T14:22:26.946Z,4.50
2022-09-18T14:25:03.573Z,2.00
2022-09-18T14:27:49.103Z,4.50
2022-09-18T14:30:29.241Z,10.50
2022-09-18T14:33:23.549Z,4.30
2022-09-18T14:36:04.740Z,3.50
2022-09-18T14:38:42.010Z,8.60
2022-09-18T14:41:22.486Z,5.60
2022-09-18T14:44:00.499Z,6.00
2022-09-18T14:46:35.090Z,2.80
2022-09-18T14:49:29.047Z,7.10
2022-09-18T14:52:04.862Z,4.60
2022-09-18T14:54:47.895Z,6.60
2022-09-18T14:57:23.223Z,4.70
2022-09-18T15:00:02.700Z,9.40
2022-09-18T15:02:38.018Z,6.20
2022-09-18T15:05:21.207Z,5.10
2022-09-18T15:07:58.872Z,5.50
2022-09-18T15:10:33.710Z,6.60
2022-09-18T15:13:10.667Z,4.60
2022-09-18T15:15:45.116Z,6.90
2022-09-18T15:18:25.248Z,5.20
2022-09-18T15:21:01.966Z,5.90
2022-09-18T15:23:38.725Z,5.00
2022-09-18T15:26:17.115Z,6.70
2022-09-18T15:28:55.236Z,5.00
2022-09-18T15:31:32.276Z,6.00
2022-09-18T15:34:14.138Z,2.50
2022-09-18T15:36:48.140Z,6.80
2022-09-18T15:39:35.642Z,5.00
2022-09-18T15:42:29.361Z,5.40
2022-09-18T15:45:23.916Z,4.90
2022-09-18T15:47:59.150Z,5.80
2022-09-18T15:50:44.686Z,5.60
2022-09-18T15:53:31.262Z,3.30
2022-09-18T15:56:09.195Z,3.70
2022-09-18T15:58:53.250Z,4.50
2022-09-18T16:01:35.612Z,2.90
2022-09-18T16:04:24.646Z,2.40
2022-09-18T16:07:02.354Z,4.20
2022-09-18T16:09:49.515Z,2.30
2022-09-18T16:12:43.099Z,3.20
2022-09-18T16:15:26.442Z,3.60
2022-09-18T16:18:20.926Z,4.10
2022-09-18T16:21:09.197Z,4.20
2022-09-18T16:23:53.746Z,4.50
2022-09-18T16:26:31.796Z,5.70
2022-09-18T16:29:07.006Z,4.30
2022-09-18T16:31:40.393Z,5.00
2022-09-18T16:34:25.951Z,5.70
2022-09-18T16:36:59.262Z,7.10
2022-09-18T16:39:32.131Z,4.70
2022-09-18T16:42:15.412Z,5.20
2022-09-18T16:44:48.041Z,6.10
2022-09-18T16:47:21.983Z,4.70
2022-09-18T16:49:54.628Z,4.40
2022-09-18T16:52:27.280Z,5.30
2022-09-18T16:54:59.992Z,7.20
2022-09-18T16:57:32.874Z,10.00
2022-09-18T17:00:10.290Z,6.90
2022-09-18T17:02:43.131Z,6.80
2022-09-18T17:05:16.337Z,4.20
2022-09-18T17:07:49.161Z,2.40
2022-09-18T17:10:22.904Z,3.40
2022-09-18T17:12:55.808Z,7.10
2022-09-18T17:15:29.168Z,4.20
2022-09-18T17:18:01.992Z,5.10
2022-09-18T17:20:36.765Z,6.80
2022-09-18T17:23:09.964Z,11.40
2022-09-18T17:25:43.230Z,9.30
2022-09-18T17:28:18.953Z,13.40
2022-09-18T17:30:54.603Z,6.60
2022-09-18T17:33:28.275Z,11.00
2022-09-18T17:36:05.383Z,8.80
2022-09-18T17:38:38.937Z,10.30
2022-09-18T17:41:15.267Z,11.30
2022-09-18T17:43:51.839Z,9.90
2022-09-18T17:46:25.094Z,5.90
2022-09-18T17:49:00.631Z,20.20
2022-09-18T17:51:34.088Z,9.60
2022-09-18T17:54:08.606Z,5.90
2022-09-18T17:56:41.883Z,10.80
2022-09-18T17:59:15.589Z,9.00
2022-09-18T18:01:50.871Z,9.00
2022-09-18T18:04:24.543Z,7.90
2022-09-18T18:06:57.551Z,5.70
2022-09-18T18:09:30.408Z,7.30
2022-09-18T18:12:03.826Z,7.70
2022-09-18T18:14:37.168Z,8.30
2022-09-18T18:17:10.210Z,2.80
2022-09-18T18:19:43.270Z,5.00
2022-09-18T18:22:16.744Z,5.00
2022-09-18T18:24:53.857Z,5.30
2022-09-18T18:27:26.880Z,5.00
2022-09-18T18:30:00.357Z,5.30
2022-09-18T18:32:35.374Z,5.90
2022-09-18T18:35:10.619Z,5.80
2022-09-18T18:37:43.293Z,6.40
2022-09-18T18:40:16.595Z,4.40
2022-09-18T18:42:50.044Z,5.20
2022-09-18T18:45:24.245Z,4.80
2022-09-18T18:47:58.213Z,4.60
2022-09-18T18:50:33.759Z,7.60
2022-09-18T18:53:08.658Z,6.70
2022-09-18T18:55:42.615Z,5.40
2022-09-18T18:58:18.115Z,5.10
2022-09-18T19:00:51.059Z,1.80
2022-09-18T19:03:24.121Z,3.70
2022-09-18T19:05:57.633Z,4.60
2022-09-18T19:08:30.812Z,2.00
2022-09-18T19:11:05.377Z,5.10
2022-09-18T19:13:41.614Z,3.20
2022-09-18T19:16:15.475Z,3.30
2022-09-18T19:18:55.046Z,3.90
2022-09-18T19:21:29.019Z,3.60
2022-09-18T19:24:02.461Z,3.90
2022-09-18T19:26:36.226Z,2.90
2022-09-18T19:29:13.757Z,4.40
2022-09-18T19:31:48.097Z,3.10
2022-09-18T19:34:23.003Z,3.90
2022-09-18T19:36:56.203Z,3.80
2022-09-18T19:39:29.059Z,7.50
2022-09-18T19:42:10.060Z,2.60
2022-09-18T19:44:47.562Z,4.20
2022-09-18T19:47:26.279Z,4.80
2022-09-18T19:50:00.810Z,4.90
2022-09-18T19:52:36.525Z,3.70
2022-09-18T19:55:18.252Z,2.10
2022-09-18T19:57:51.437Z,2.40
2022-09-18T20:00:25.071Z,3.70
2022-09-18T20:03:01.400Z,3.10
2022-09-18T20:05:36.951Z,1.70
2022-09-18T20:08:10.840Z,6.10
2022-09-18T20:10:44.471Z,3.10
2022-09-18T20:13:17.546Z,2.60
2022-09-18T20:16:01.142Z,2.40
2022-09-18T20:18:34.479Z,2.50
2022-09-18T20:21:13.081Z,1.80
2022-09-18T20:23:46.078Z,4.50
2022-09-18T20:26:20.510Z,2.50
2022-09-18T20:28:53.362Z,6.00
2022-09-18T20:31:29.177Z,4.00
2022-09-18T20:34:04.090Z,4.10
2022-09-18T20:36:37.024Z,6.20
2022-09-18T20:39:10.204Z,2.90
2022-09-18T20:41:43.252Z,5.90
2022-09-18T20:44:16.150Z,2.60
2022-09-18T20:46:50.541Z,3.30
2022-09-18T20:49:23.427Z,2.90
2022-09-18T20:51:57.163Z,3.40
2022-09-18T20:54:32.983Z,4.30
2022-09-18T20:57:09.259Z,3.40
2022-09-18T20:59:42.029Z,2.80
2022-09-18T21:02:14.854Z,3.30
2022-09-18T21:04:50.883Z,2.00
2022-09-18T21:07:25.911Z,2.00
2022-09-18T21:09:58.513Z,2.10
2022-09-18T21:12:39.052Z,4.20
2022-09-18T21:17:50.346Z,3.80
2022-09-18T21:20:23.167Z,1.60
2022-09-18T21:23:13.935Z,4.00
2022-09-18T21:28:18.281Z,3.20
2022-09-18T21:30:51.361Z,2.60
2022-09-18T21:33:27.505Z,2.20
2022-09-18T21:36:00.252Z,1.60
2022-09-18T21:38:34.766Z,2.20
2022-09-18T21:41:10.779Z,3.00
2022-09-18T21:43:47.431Z,2.60
2022-09-18T21:46:22.707Z,5.10
2022-09-18T21:48:56.639Z,4.70
2022-09-18T21:51:29.292Z,2.70
2022-09-18T21:54:05.920Z,2.60
2022-09-18T21:56:39.048Z,4.00
2022-09-18T21:59:13.059Z,2.90
2022-09-18T22:01:51.406Z,3.50
2022-09-18T22:04:26.517Z,3.70
2022-09-18T22:07:01.680Z,4.80
2022-09-18T22:09:38.510Z,2.60
2022-09-18T22:12:13.050Z,4.30
2022-09-18T22:14:46.141Z,4.40
2022-09-18T22:17:19.025Z,3.10
2022-09-18T22:19:51.631Z,1.60
2022-09-18T22:22:24.667Z,1.70
2022-09-18T22:24:57.521Z,3.40
2022-09-18T22:27:32.821Z,4.30
2022-09-18T22:30:07.319Z,4.60
2022-09-18T22:32:39.938Z,2.70
2022-09-18T22:35:14.100Z,4.50
2022-09-18T22:37:47.117Z,4.20
2022-09-18T22:40:20.539Z,3.10
2022-09-18T22:42:53.411Z,2.90
2022-09-18T22:45:26.174Z,5.70
2022-09-18T22:47:59.013Z,1.90
2022-09-18T22:50:31.752Z,3.70
2022-09-18T22:53:04.740Z,3.30
2022-09-18T22:55:37.419Z,4.50
2022-09-18T22:58:10.205Z,3.50
2022-09-18T23:00:42.898Z,5.10
2022-09-18T23:03:15.657Z,3.30
2022-09-18T23:05:48.672Z,3.00
2022-09-18T23:08:21.228Z,3.40
2022-09-18T23:10:55.257Z,4.30
2022-09-18T23:13:28.119Z,4.10
2022-09-18T23:16:04.504Z,2.80
2022-09-18T23:18:38.313Z,3.60
2022-09-18T23:21:13.970Z,2.80
2022-09-18T23:23:48.569Z,5.70
2022-09-18T23:26:24.526Z,3.30
2022-09-18T23:29:00.084Z,6.50
2022-09-18T23:31:36.329Z,3.40
2022-09-18T23:34:12.378Z,3.80
2022-09-18T23:36:47.957Z,3.40
2022-09-18T23:39:24.498Z,3.80
2022-09-18T23:41:58.979Z,4.10
2022-09-18T23:44:33.932Z,5.50
2022-09-18T23:47:07.039Z,5.60
2022-09-18T23:49:39.905Z,3.80
2022-09-18T23:52:12.618Z,5.80
2022-09-18T23:54:45.201Z,4.40
2022-09-18T23:57:17.876Z,3.10
2022-09-18T23:59:51.886Z,3.60
